Time;durP1;ratioP1;P1;durP2;ratioP2;P2;SDS_P1;SDS_P2;PMS_P1;PMS_P2;Temp;Humidity;BMP_temperature;BMP_pressure;BME280_temperature;BME280_humidity;BME280_pressure;Samples;Min_cycle;Max_cycle;Signal;HPM_P1;HPM_P2
2023/04/10 00:01:12;;;;;;;13.02;7.20;;;;;;;4.11;100.00;99415.97;4981620;28;20025;-60
2023/04/10 00:03:38;;;;;;;14.05;7.70;;;;;;;4.11;100.00;99403.47;4995024;28;20113;-59
2023/04/10 00:06:04;;;;;;;12.35;7.13;;;;;;;4.11;100.00;99406.13;4968795;28;20026;-60
2023/04/10 00:08:30;;;;;;;15.65;7.25;;;;;;;4.20;100.00;99403.56;4980159;28;20482;-60
2023/04/10 00:10:55;;;;;;;17.58;7.30;;;;;;;4.25;100.00;99406.66;4977712;28;20023;-60
2023/04/10 00:13:21;;;;;;;14.25;7.75;;;;;;;4.25;100.00;99403.97;4979341;28;20029;-60
2023/04/10 00:15:47;;;;;;;12.20;6.60;;;;;;;4.16;100.00;99397.63;4975378;28;20537;-60
2023/04/10 00:18:12;;;;;;;16.80;7.38;;;;;;;4.13;100.00;99404.13;4978480;28;20037;-60
2023/04/10 00:20:37;;;;;;;13.20;7.07;;;;;;;4.14;100.00;99400.47;4981486;28;20022;-60
2023/04/10 00:23:03;;;;;;;13.77;7.15;;;;;;;4.15;100.00;99387.94;5006523;28;20035;-60
2023/04/10 00:25:28;;;;;;;15.52;8.23;;;;;;;4.12;100.00;99396.25;4973771;28;20121;-60
2023/04/10 00:27:54;;;;;;;13.82;7.28;;;;;;;4.13;100.00;99390.75;4977153;28;20053;-59
2023/04/10 00:30:20;;;;;;;14.75;7.53;;;;;;;4.15;100.00;99394.13;4975765;28;20026;-60
2023/04/10 00:32:46;;;;;;;15.48;7.80;;;;;;;3.94;100.00;99389.00;4976397;28;20034;-59
2023/04/10 00:35:12;;;;;;;12.38;7.57;;;;;;;3.91;100.00;99386.63;4976898;28;20115;-59
2023/04/10 00:37:37;;;;;;;12.48;7.07;;;;;;;3.76;100.00;99387.22;4982865;28;20113;-60
2023/04/10 00:40:05;;;;;;;13.05;6.80;;;;;;;3.71;100.00;99388.50;4996070;28;20022;-60
2023/04/10 00:42:30;;;;;;;16.20;8.38;;;;;;;3.59;100.00;99383.47;4979083;28;20120;-59
2023/04/10 00:44:55;;;;;;;14.50;8.00;;;;;;;3.55;100.00;99392.78;4977320;28;20031;-59
2023/04/10 00:47:21;;;;;;;14.68;7.60;;;;;;;3.59;100.00;99383.47;4986032;28;20033;-59
2023/04/10 00:49:47;;;;;;;14.48;7.65;;;;;;;3.54;100.00;99380.38;4977754;28;20036;-59
2023/04/10 00:52:12;;;;;;;14.15;7.30;;;;;;;3.36;100.00;99385.63;4970306;28;20069;-59
2023/04/10 00:54:39;;;;;;;14.02;6.82;;;;;;;3.28;100.00;99387.19;4975619;28;20493;-60
2023/04/10 00:57:04;;;;;;;15.13;8.15;;;;;;;3.24;100.00;99375.06;4973324;28;20149;-59
2023/04/10 00:59:30;;;;;;;15.82;7.32;;;;;;;3.21;100.00;99375.38;4977726;28;20109;-60
2023/04/10 01:01:56;;;;;;;12.95;6.88;;;;;;;3.29;100.00;99377.31;4982321;28;20026;-60
2023/04/10 01:04:22;;;;;;;15.65;7.45;;;;;;;3.24;100.00;99388.44;4972616;28;20542;-61
2023/04/10 01:07:00;;;;;;;12.48;6.93;;;;;;;3.18;100.00;99380.16;4987419;28;20073;-60
2023/04/10 01:09:44;;;;;;;13.75;7.57;;;;;;;3.01;100.00;99371.00;4981779;28;20462;-60
2023/04/10 01:12:37;;;;;;;16.85;7.03;;;;;;;3.09;100.00;99387.19;4977762;28;20029;-59
2023/04/10 01:15:11;;;;;;;13.32;7.22;;;;;;;3.04;100.00;99390.31;4974055;28;20038;-60
2023/04/10 01:18:12;;;;;;;15.05;7.78;;;;;;;3.00;100.00;99390.72;4974262;28;20077;-60
2023/04/10 01:20:40;;;;;;;14.02;7.07;;;;;;;2.89;100.00;99381.00;4951838;28;20096;-60
2023/04/10 01:23:29;;;;;;;14.55;7.63;;;;;;;2.93;100.00;99387.75;5002309;28;20034;-61
2023/04/10 01:26:02;;;;;;;13.77;7.35;;;;;;;2.98;100.00;99390.00;4988794;28;20028;-59
2023/04/10 01:28:37;;;;;;;12.93;6.78;;;;;;;2.96;100.00;99395.50;4990810;28;20036;-60
2023/04/10 01:31:06;;;;;;;18.33;7.93;;;;;;;2.90;100.00;99396.03;4969583;28;20492;-60
2023/04/10 01:33:39;;;;;;;17.20;7.45;;;;;;;2.76;100.00;99394.63;4976651;28;20029;-60
2023/04/10 01:36:07;;;;;;;13.55;7.20;;;;;;;2.89;100.00;99393.53;4985474;28;20045;-60
2023/04/10 01:38:34;;;;;;;13.18;7.38;;;;;;;2.89;100.00;99396.22;4994813;28;20458;-60
2023/04/10 01:41:01;;;;;;;13.05;7.40;;;;;;;2.72;100.00;99393.22;4985752;28;20121;-59
2023/04/10 01:43:30;;;;;;;13.90;7.13;;;;;;;2.68;100.00;99399.00;4970217;28;20060;-60
2023/04/10 01:45:57;;;;;;;14.27;7.43;;;;;;;2.67;100.00;99395.44;4965133;28;20032;-61
2023/04/10 01:48:23;;;;;;;12.68;7.13;;;;;;;2.57;100.00;99398.13;4993706;28;20308;-60
2023/04/10 01:50:49;;;;;;;15.65;7.78;;;;;;;2.63;100.00;99397.56;4999175;28;20070;-60
2023/04/10 01:53:15;;;;;;;12.85;6.72;;;;;;;2.66;100.00;99393.78;4993588;28;20033;-60
2023/04/10 01:55:42;;;;;;;14.02;6.32;;;;;;;2.68;100.00;99389.16;4976951;28;20504;-60
2023/04/10 01:58:07;;;;;;;13.02;6.88;;;;;;;2.66;100.00;99391.09;4989108;28;20054;-60
2023/04/10 02:00:40;;;;;;;13.93;6.80;;;;;;;2.65;100.00;99394.78;4972397;28;20057;-60
2023/04/10 02:03:06;;;;;;;13.38;6.50;;;;;;;2.68;100.00;99389.16;4976972;28;20049;-60
2023/04/10 02:05:43;;;;;;;12.65;6.90;;;;;;;2.57;100.00;99386.59;4978534;28;20032;-60
2023/04/10 02:08:20;;;;;;;14.43;7.07;;;;;;;2.48;100.00;99380.25;4978336;28;20037;-60
2023/04/10 02:11:06;;;;;;;13.20;7.32;;;;;;;2.50;100.00;99378.28;4967877;28;20026;-60
2023/04/10 02:13:34;;;;;;;15.07;6.75;;;;;;;2.48;100.00;99377.56;4974316;28;20121;-60
2023/04/10 02:16:04;;;;;;;13.15;6.50;;;;;;;2.50;100.00;99374.78;4998340;28;20119;-60
2023/04/10 02:18:33;;;;;;;13.18;7.28;;;;;;;2.47;100.00;99385.75;4978369;28;20041;-59
2023/04/10 02:20:59;;;;;;;12.77;6.32;;;;;;;2.43;100.00;99390.50;4974537;28;20026;-61
2023/04/10 02:23:25;;;;;;;14.00;7.15;;;;;;;2.26;100.00;99383.16;4974927;28;20045;-61
2023/04/10 02:25:51;;;;;;;14.77;7.07;;;;;;;2.33;100.00;99373.59;4969149;28;20022;-61
2023/04/10 02:28:16;;;;;;;11.73;6.57;;;;;;;2.33;100.00;99379.81;4970823;28;20125;-60
2023/04/10 02:30:41;;;;;;;15.68;7.10;;;;;;;2.38;100.00;99382.03;4985723;28;20402;-60
2023/04/10 02:33:07;;;;;;;13.40;6.63;;;;;;;2.30;100.00;99385.41;4972452;28;20111;-59
2023/04/10 02:35:33;;;;;;;14.30;7.05;;;;;;;2.25;100.00;99365.44;5001658;28;20479;-61
2023/04/10 02:37:59;;;;;;;13.82;7.13;;;;;;;2.39;100.00;99389.94;4975441;28;20034;-59
2023/04/10 02:40:24;;;;;;;14.77;7.40;;;;;;;2.44;100.00;99388.66;4968845;28;20026;-60
2023/04/10 02:42:49;;;;;;;14.90;7.60;;;;;;;2.45;100.00;99393.03;4994829;28;20025;-60
2023/04/10 02:45:15;;;;;;;13.23;6.45;;;;;;;2.59;100.00;99392.63;4982537;28;20352;-60
2023/04/10 02:47:41;;;;;;;14.32;7.13;;;;;;;2.67;100.00;99395.44;4991606;28;20121;-60
2023/04/10 02:50:08;;;;;;;18.20;7.85;;;;;;;2.78;100.00;99391.84;4974569;28;20033;-60
2023/04/10 02:52:33;;;;;;;14.02;7.53;;;;;;;2.77;100.00;99390.97;4971674;28;20085;-60
2023/04/10 02:54:58;;;;;;;16.80;8.25;;;;;;;2.63;100.00;99388.72;4986481;28;20030;-60
2023/04/10 02:57:25;;;;;;;14.63;7.90;;;;;;;2.44;100.00;99388.66;4985547;28;20095;-60
2023/04/10 02:59:51;;;;;;;14.13;7.40;;;;;;;2.23;100.00;99386.94;4975754;28;20105;-60
2023/04/10 03:02:17;;;;;;;14.80;7.63;;;;;;;2.05;100.00;99391.25;4962658;28;20751;-60
2023/04/10 03:04:42;;;;;;;14.52;7.30;;;;;;;1.91;100.00;99395.97;4970268;28;20026;-70
2023/04/10 03:07:08;;;;;;;15.20;7.38;;;;;;;1.82;100.00;99404.75;4972913;28;20077;-71
2023/04/10 03:09:33;;;;;;;13.60;7.20;;;;;;;1.83;100.00;99402.91;4971865;28;20026;-70
2023/04/10 03:11:58;;;;;;;15.25;7.25;;;;;;;1.80;100.00;99403.19;4990214;28;20086;-60
2023/04/10 03:14:25;;;;;;;15.35;6.95;;;;;;;1.83;100.00;99401.09;4986060;28;20042;-59
2023/04/10 03:16:50;;;;;;;12.15;6.30;;;;;;;1.89;100.00;99403.25;4970249;28;20061;-59
2023/04/10 03:19:15;;;;;;;13.75;6.82;;;;;;;2.02;100.00;99391.47;4994757;28;20105;-71
2023/04/10 03:21:41;;;;;;;13.43;7.25;;;;;;;2.09;100.00;99389.97;4983832;28;20041;-71
2023/04/10 03:24:07;;;;;;;12.82;6.78;;;;;;;2.11;100.00;99385.34;4970940;28;20023;-71
2023/04/10 03:26:32;;;;;;;13.15;6.32;;;;;;;2.12;100.00;99382.56;4979462;28;20029;-71
2023/04/10 03:28:58;;;;;;;13.27;6.60;;;;;;;2.10;100.00;99373.00;4992639;28;20398;-71
2023/04/10 03:31:23;;;;;;;10.82;6.38;;;;;;;2.03;100.00;99374.50;4975856;28;20034;-71
2023/04/10 03:33:49;;;;;;;15.05;6.82;;;;;;;2.00;100.00;99372.13;4992891;28;20073;-72
2023/04/10 03:36:14;;;;;;;12.05;6.60;;;;;;;1.88;100.00;99356.19;4991940;28;20041;-71
2023/04/10 03:38:40;;;;;;;11.50;6.22;;;;;;;1.93;100.00;99374.47;4996048;28;20026;-70
2023/04/10 03:41:05;;;;;;;13.93;6.78;;;;;;;1.82;100.00;99370.06;4976530;28;20393;-72
2023/04/10 03:43:31;;;;;;;14.48;6.93;;;;;;;1.84;100.00;99365.44;4971568;28;20084;-71
2023/04/10 03:45:56;;;;;;;11.48;6.53;;;;;;;1.95;100.00;99367.16;4968041;28;20019;-72
2023/04/10 03:48:22;;;;;;;14.63;7.10;;;;;;;1.97;100.00;99366.06;4978893;28;20019;-71
2023/04/10 03:50:47;;;;;;;13.13;6.63;;;;;;;2.11;100.00;99356.00;4992309;28;20052;-70
2023/04/10 03:53:13;;;;;;;13.45;6.95;;;;;;;2.12;100.00;99363.88;4995974;28;20026;-72
2023/04/10 03:55:38;;;;;;;12.77;7.13;;;;;;;2.03;100.00;99350.50;4992037;28;20034;-71
2023/04/10 03:58:04;;;;;;;11.52;6.82;;;;;;;1.90;100.00;99362.22;4974291;28;20050;-71
2023/04/10 04:00:30;;;;;;;12.43;6.35;;;;;;;1.90;100.00;99356.06;5000651;28;20029;-68
2023/04/10 04:02:57;;;;;;;13.43;6.32;;;;;;;1.74;100.00;99353.88;4986416;28;20537;-69
2023/04/10 04:05:23;;;;;;;13.77;6.95;;;;;;;1.70;100.00;99360.44;4980072;28;20081;-70
2023/04/10 04:07:50;;;;;;;12.88;7.03;;;;;;;1.53;100.00;99353.94;4973348;28;20026;-67
2023/04/10 04:10:15;;;;;;;11.43;6.50;;;;;;;1.54;100.00;99356.44;4986621;28;20033;-67
2023/04/10 04:12:40;;;;;;;12.50;6.30;;;;;;;1.55;100.00;99354.66;4981958;28;20022;-67
2023/04/10 04:15:06;;;;;;;12.88;6.28;;;;;;;1.66;100.00;99359.03;4978430;28;20026;-66
2023/04/10 04:17:32;;;;;;;11.23;6.38;;;;;;;1.77;100.00;99361.63;5013039;28;20049;-67
2023/04/10 04:19:57;;;;;;;12.68;6.57;;;;;;;1.77;100.00;99348.28;4993340;28;20072;-69
2023/04/10 04:22:23;;;;;;;11.52;6.65;;;;;;;1.72;100.00;99353.16;4987061;28;20091;-68
2023/04/10 04:24:48;;;;;;;13.63;6.85;;;;;;;1.64;100.00;99350.31;4978106;28;20165;-68
2023/04/10 04:27:13;;;;;;;13.88;7.32;;;;;;;1.54;100.00;99337.78;4974909;28;20504;-61
2023/04/10 04:29:39;;;;;;;16.33;6.50;;;;;;;1.73;100.00;99344.22;4989190;28;20024;-60
2023/04/10 04:32:05;;;;;;;13.13;6.57;;;;;;;1.61;100.00;99335.44;4977068;28;20026;-61
2023/04/10 04:34:30;;;;;;;16.80;7.55;;;;;;;1.73;100.00;99349.53;4976069;28;20022;-60
2023/04/10 04:36:55;;;;;;;11.90;6.50;;;;;;;1.81;100.00;99352.38;4990792;28;20030;-61
2023/04/10 04:39:22;;;;;;;12.18;6.65;;;;;;;1.89;100.00;99347.22;5001742;28;20022;-60
2023/04/10 04:41:47;;;;;;;13.65;6.72;;;;;;;2.08;100.00;99354.44;4971234;28;20505;-60
2023/04/10 04:44:12;;;;;;;13.43;6.53;;;;;;;2.30;100.00;99352.53;4976865;28;20039;-61
2023/04/10 04:46:38;;;;;;;12.93;7.15;;;;;;;2.27;100.00;99348.28;4974356;28;20025;-61
2023/04/10 04:49:03;;;;;;;11.65;6.57;;;;;;;2.22;100.00;99313.16;4980884;28;20715;-61
2023/04/10 04:51:29;;;;;;;12.00;6.45;;;;;;;2.60;100.00;99335.56;4985912;28;20026;-60
2023/04/10 04:53:55;;;;;;;13.30;6.70;;;;;;;2.66;100.00;99335.00;4973578;28;20026;-61
2023/04/10 04:56:20;;;;;;;11.15;5.78;;;;;;;2.72;100.00;99338.94;4971995;28;20033;-60
2023/04/10 04:58:46;;;;;;;12.88;6.88;;;;;;;2.77;100.00;99334.84;4985170;28;20026;-61
2023/04/10 05:01:12;;;;;;;13.60;6.65;;;;;;;2.95;100.00;99336.84;4994292;28;20030;-60
2023/04/10 05:03:37;;;;;;;15.38;7.07;;;;;;;3.20;100.00;99332.75;4969486;28;20511;-60
2023/04/10 05:06:03;;;;;;;11.95;6.38;;;;;;;3.49;100.00;99325.50;4985940;28;20077;-62
2023/04/10 05:08:28;;;;;;;12.82;6.75;;;;;;;3.80;100.00;99332.41;4984161;28;20022;-61
2023/04/10 05:10:55;;;;;;;13.02;6.60;;;;;;;4.01;100.00;99324.16;4995762;28;20050;-68
2023/04/10 05:13:20;;;;;;;12.32;6.40;;;;;;;4.15;100.00;99331.69;4970037;28;20455;-69
2023/04/10 05:15:46;;;;;;;12.15;6.85;;;;;;;4.30;100.00;99332.88;4988750;28;20113;-68
2023/04/10 05:18:12;;;;;;;12.85;6.53;;;;;;;4.54;100.00;99332.28;4978153;28;20034;-68
2023/04/10 05:20:38;;;;;;;10.10;5.57;;;;;;;4.64;100.00;99326.00;4998878;28;20026;-63
2023/04/10 05:23:03;;;;;;;13.63;6.85;;;;;;;4.79;100.00;99319.13;4987130;28;20035;-61
2023/04/10 05:25:28;;;;;;;11.82;5.93;;;;;;;4.96;100.00;99337.06;4977397;28;20423;-68
2023/04/10 05:27:54;;;;;;;10.95;5.95;;;;;;;5.01;100.00;99341.97;4976442;28;20030;-59
2023/04/10 05:30:20;;;;;;;10.60;5.88;;;;;;;5.15;100.00;99327.16;4990707;28;20560;-61
2023/04/10 05:32:45;;;;;;;11.82;6.05;;;;;;;5.32;100.00;99323.59;4963969;28;20057;-60
2023/04/10 05:35:11;;;;;;;12.38;6.30;;;;;;;5.40;100.00;99330.88;4966887;28;20030;-61
2023/04/10 05:37:37;;;;;;;11.98;6.57;;;;;;;5.82;100.00;99319.38;4973048;28;20027;-60
2023/04/10 05:40:03;;;;;;;13.75;6.97;;;;;;;6.38;100.00;99322.47;4980842;28;20066;-60
2023/04/10 05:42:28;;;;;;;15.20;7.10;;;;;;;7.32;100.00;99322.03;4976751;28;20121;-68
2023/04/10 05:44:53;;;;;;;17.90;8.95;;;;;;;8.35;100.00;99322.06;4971811;28;20509;-60
2023/04/10 05:47:19;;;;;;;18.45;8.60;;;;;;;9.44;100.00;99317.44;4974923;28;20036;-67
2023/04/10 05:49:44;;;;;;;11.30;6.50;;;;;;;10.47;100.00;99315.75;4968656;28;20120;-67
2023/04/10 05:52:09;;;;;;;11.85;5.90;;;;;;;11.93;100.00;99312.72;4962941;28;20048;-60
2023/04/10 05:54:35;;;;;;;10.68;6.03;;;;;;;12.81;92.39;99311.00;4975161;28;20066;-60
2023/04/10 05:57:00;;;;;;;8.73;5.47;;;;;;;12.64;81.98;99317.84;4972128;28;20042;-59
2023/04/10 05:59:26;;;;;;;9.40;5.72;;;;;;;13.22;78.27;99320.88;4974382;28;20033;-59
2023/04/10 06:01:52;;;;;;;10.52;5.90;;;;;;;13.99;75.76;99321.25;4993102;28;20450;-59
2023/04/10 06:04:17;;;;;;;10.07;5.55;;;;;;;15.56;66.72;99308.06;4978372;28;20129;-59
2023/04/10 06:06:43;;;;;;;8.88;5.63;;;;;;;15.92;62.89;99285.47;4978434;28;20030;-58
2023/04/10 06:09:09;;;;;;;7.28;5.03;;;;;;;16.15;59.53;99312.13;4972439;28;20102;-58
2023/04/10 06:11:34;;;;;;;10.20;5.80;;;;;;;16.99;57.22;99308.75;4974206;28;20032;-58
2023/04/10 06:14:00;;;;;;;12.45;6.25;;;;;;;16.36;57.39;99304.53;4975006;28;20039;-58
2023/04/10 06:16:25;;;;;;;10.20;6.45;;;;;;;17.24;56.03;99309.44;4988727;28;20073;-57
2023/04/10 06:18:52;;;;;;;8.95;5.72;;;;;;;15.96;55.90;99307.72;4971420;28;20496;-59
2023/04/10 06:21:18;;;;;;;8.60;5.20;;;;;;;15.56;57.82;99306.19;4971158;28;20045;-59
2023/04/10 06:23:43;;;;;;;8.43;5.85;;;;;;;14.80;59.77;99317.19;4982031;28;20042;-59
2023/04/10 06:26:09;;;;;;;10.10;6.05;;;;;;;14.20;61.41;99301.97;4973043;28;20026;-58
2023/04/10 06:28:35;;;;;;;8.65;5.80;;;;;;;13.90;65.04;99315.22;4992114;28;20041;-58
2023/04/10 06:31:02;;;;;;;8.00;5.50;;;;;;;14.38;68.87;99308.56;4991140;28;20037;-58
2023/04/10 06:33:28;;;;;;;8.98;5.40;;;;;;;14.73;66.47;99311.81;4974509;28;20034;-59
2023/04/10 06:35:54;;;;;;;7.53;5.32;;;;;;;15.96;61.18;99311.28;4987987;28;20032;-60
2023/04/10 06:38:20;;;;;;;7.78;5.40;;;;;;;16.49;59.52;99309.00;4973089;28;20561;-58
2023/04/10 06:40:46;;;;;;;8.20;5.28;;;;;;;16.57;59.32;99298.59;4989750;28;20044;-58
2023/04/10 06:43:11;;;;;;;8.02;5.50;;;;;;;16.69;58.48;99301.38;4992258;28;20065;-58
2023/04/10 06:45:36;;;;;;;7.72;5.53;;;;;;;17.31;56.67;99295.63;4967560;28;20030;-60
2023/04/10 06:48:02;;;;;;;6.97;5.35;;;;;;;17.65;54.30;99307.69;4972661;28;20485;-68
2023/04/10 06:50:28;;;;;;;7.32;4.93;;;;;;;18.54;53.15;99298.44;4972342;28;20037;-65
2023/04/10 06:52:54;;;;;;;8.38;5.40;;;;;;;18.96;48.91;99293.53;4998544;28;20031;-67
2023/04/10 06:55:20;;;;;;;7.78;5.20;;;;;;;19.69;49.11;99288.19;4995074;28;20022;-66
2023/04/10 06:57:46;;;;;;;8.20;5.97;;;;;;;19.81;47.09;99290.88;4975014;28;20027;-66
2023/04/10 07:00:12;;;;;;;7.13;5.03;;;;;;;19.99;46.05;99287.84;4986564;28;20034;-68
2023/04/10 07:02:37;;;;;;;6.88;4.88;;;;;;;19.76;47.12;99293.53;4962683;28;20034;-67
2023/04/10 07:05:03;;;;;;;7.60;5.28;;;;;;;19.34;47.74;99291.19;4970435;28;20579;-67
2023/04/10 07:07:28;;;;;;;7.93;5.78;;;;;;;20.59;45.73;99286.13;4972900;28;20026;-60
2023/04/10 07:09:54;;;;;;;6.20;4.65;;;;;;;21.40;44.32;99286.16;4973152;28;20073;-58
2023/04/10 07:12:19;;;;;;;6.07;4.57;;;;;;;21.39;42.00;99286.44;4974031;28;20437;-59
2023/04/10 07:14:45;;;;;;;6.43;4.90;;;;;;;21.70;41.18;99284.75;4971041;28;20026;-59
2023/04/10 07:17:11;;;;;;;6.78;4.80;;;;;;;22.51;39.49;99278.06;4985115;28;20397;-59
2023/04/10 07:19:37;;;;;;;6.03;4.45;;;;;;;22.26;38.89;99271.31;4988287;28;20030;-59
2023/04/10 07:22:02;;;;;;;6.70;4.50;;;;;;;23.81;37.32;99274.06;4972982;28;20474;-58
2023/04/10 07:24:30;;;;;;;6.72;4.63;;;;;;;24.83;35.72;99261.00;4972909;28;20037;-59
2023/04/10 07:26:56;;;;;;;6.13;4.38;;;;;;;25.40;34.61;99272.53;4975111;28;20049;-59
2023/04/10 07:29:23;;;;;;;5.88;3.90;;;;;;;25.97;33.80;99268.97;4990703;28;20438;-59
2023/04/10 07:31:49;;;;;;;7.43;4.22;;;;;;;26.35;32.93;99259.94;4981857;28;20031;-59
2023/04/10 07:34:14;;;;;;;6.57;4.47;;;;;;;23.20;35.21;99276.84;4975654;28;20454;-59
2023/04/10 07:36:40;;;;;;;5.55;4.05;;;;;;;23.22;35.86;99271.88;4987394;28;20030;-60
2023/04/10 07:39:05;;;;;;;6.40;4.47;;;;;;;23.52;35.30;99270.22;4972905;28;20185;-58
2023/04/10 07:41:31;;;;;;;6.40;4.47;;;;;;;21.43;37.29;99268.28;4969881;28;20423;-67
2023/04/10 07:43:56;;;;;;;5.53;4.07;;;;;;;22.86;36.48;99271.78;4974426;28;20035;-67
2023/04/10 07:46:21;;;;;;;7.13;4.13;;;;;;;22.08;36.57;99269.81;4989665;28;20090;-66
2023/04/10 07:48:48;;;;;;;5.45;4.30;;;;;;;21.74;37.53;99271.25;4989915;28;20482;-68
2023/04/10 07:51:14;;;;;;;6.15;4.55;;;;;;;22.07;36.71;99272.84;4973269;28;20382;-65
2023/04/10 07:53:39;;;;;;;4.80;3.70;;;;;;;20.89;38.15;99271.91;4972533;28;20030;-67
2023/04/10 07:56:05;;;;;;;6.63;4.10;;;;;;;22.26;37.09;99276.00;4988021;28;20049;-67
2023/04/10 07:58:31;;;;;;;5.47;4.00;;;;;;;22.38;36.23;99265.59;4974023;28;20031;-66
2023/04/10 08:00:57;;;;;;;8.27;3.85;;;;;;;21.84;37.15;99263.91;4988229;28;20030;-67
2023/04/10 08:03:22;;;;;;;5.72;3.80;;;;;;;23.89;35.23;99253.34;4972329;28;20121;-69
2023/04/10 08:05:48;;;;;;;7.07;4.18;;;;;;;24.57;34.04;99255.59;4970249;28;20034;-68
2023/04/10 08:08:17;;;;;;;4.63;3.60;;;;;;;25.43;33.10;99252.56;4979242;28;20474;-67
2023/04/10 08:10:43;;;;;;;5.53;3.83;;;;;;;24.05;34.53;99251.34;4972520;28;20026;-68
2023/04/10 08:13:08;;;;;;;6.63;4.25;;;;;;;23.19;34.68;99255.88;4989235;28;20097;-67
2023/04/10 08:15:34;;;;;;;5.18;3.60;;;;;;;21.97;35.56;99259.84;4973254;28;20033;-68
2023/04/10 08:17:59;;;;;;;4.47;3.17;;;;;;;22.57;36.03;99259.59;4974590;28;20026;-66
2023/04/10 08:20:27;;;;;;;6.72;3.58;;;;;;;24.12;34.22;99251.91;4979503;28;20378;-69
2023/04/10 08:22:53;;;;;;;5.82;3.72;;;;;;;23.99;33.37;99252.50;4994549;28;20076;-68
2023/04/10 08:25:18;;;;;;;4.97;3.40;;;;;;;23.64;34.09;99254.19;4978204;28;20038;-67
2023/04/10 08:27:43;;;;;;;4.13;3.30;;;;;;;24.71;32.85;99255.81;4978381;28;20069;-66
2023/04/10 08:30:09;;;;;;;4.95;3.58;;;;;;;23.85;33.31;99255.03;4977142;28;20034;-67
2023/04/10 08:32:35;;;;;;;5.38;3.60;;;;;;;22.33;34.37;99262.81;5002558;28;20026;-67
2023/04/10 08:35:00;;;;;;;4.05;2.97;;;;;;;22.93;34.41;99249.47;4989389;28;20089;-67
2023/04/10 08:37:26;;;;;;;3.38;2.83;;;;;;;22.67;34.06;99249.41;4974780;28;20425;-67
2023/04/10 08:39:52;;;;;;;4.05;2.92;;;;;;;23.10;34.05;99240.97;4977351;28;20049;-67
2023/04/10 08:42:17;;;;;;;3.75;2.83;;;;;;;22.46;33.61;99247.69;4974814;28;20034;-67
2023/04/10 08:44:43;;;;;;;4.65;3.28;;;;;;;22.08;34.87;99239.50;4971661;28;20034;-67
2023/04/10 08:47:09;;;;;;;4.18;3.13;;;;;;;22.29;34.50;99242.38;4972329;28;20374;-68
2023/04/10 08:50:04;;;;;;;3.78;2.72;;;;;;;23.78;32.75;99230.44;4976181;28;20402;-66
2023/04/10 08:52:33;;;;;;;4.20;2.90;;;;;;;23.12;32.93;99233.22;4968535;28;20122;-66
2023/04/10 08:55:04;;;;;;;3.22;2.20;;;;;;;23.01;33.03;99242.63;4975039;28;20034;-68
2023/04/10 08:57:32;;;;;;;3.38;2.58;;;;;;;21.62;34.12;99239.25;4975299;28;20046;-69
2023/04/10 08:59:57;;;;;;;3.30;2.42;;;;;;;22.14;33.97;99234.00;4976275;28;20030;-69
2023/04/10 09:02:23;;;;;;;4.60;2.40;;;;;;;23.18;32.88;99232.13;4967808;28;20085;-69
2023/04/10 09:04:53;;;;;;;3.80;2.63;;;;;;;24.42;31.86;99228.00;4971161;28;20081;-68
2023/04/10 09:07:19;;;;;;;3.47;2.78;;;;;;;24.01;31.79;99239.22;4974998;28;20537;-68
2023/04/10 09:09:45;;;;;;;3.72;2.53;;;;;;;23.61;32.30;99230.72;4976448;28;20030;-68
2023/04/10 09:12:12;;;;;;;3.70;2.90;;;;;;;23.78;32.34;99235.13;4989627;28;20482;-68
2023/04/10 09:14:40;;;;;;;3.95;2.75;;;;;;;24.89;31.59;99227.47;4995406;28;20032;-69
2023/04/10 09:17:16;;;;;;;3.58;2.78;;;;;;;26.42;29.76;99221.56;4980508;28;20026;-71
2023/04/10 09:19:42;;;;;;;3.67;2.78;;;;;;;27.11;29.05;99220.00;4978940;28;20032;-68
2023/04/10 09:22:08;;;;;;;3.40;2.72;;;;;;;27.28;29.33;99224.25;4972664;28;20019;-67
2023/04/10 09:24:42;;;;;;;3.00;2.50;;;;;;;26.84;29.22;99223.50;4969222;28;20191;-68
2023/04/10 09:27:08;;;;;;;3.35;2.30;;;;;;;26.76;28.82;99218.63;4977474;28;20474;-67
2023/04/10 09:29:42;;;;;;;4.25;2.85;;;;;;;24.82;30.17;99226.16;4991724;28;20034;-67
2023/04/10 09:32:08;;;;;;;5.25;2.80;;;;;;;25.09;30.18;99217.38;4986498;28;20038;-68
2023/04/10 09:34:34;;;;;;;5.63;2.80;;;;;;;25.02;30.58;99217.72;4974450;28;20474;-67
2023/04/10 09:37:00;;;;;;;3.05;2.25;;;;;;;24.87;30.76;99207.56;4983188;28;20073;-67
2023/04/10 09:39:41;;;;;;;5.15;2.40;;;;;;;25.94;30.34;99203.03;4970188;28;20121;-67
2023/04/10 09:42:07;;;;;;;4.05;2.63;;;;;;;26.45;29.86;99196.81;4975712;28;20086;-66
2023/04/10 09:44:35;;;;;;;2.92;2.47;;;;;;;26.17;29.42;99193.06;4993936;28;20038;-66
2023/04/10 09:47:12;;;;;;;5.20;2.53;;;;;;;25.13;29.56;99186.03;4973218;28;20435;-67
2023/04/10 09:49:51;;;;;;;2.70;2.20;;;;;;;24.19;31.36;99180.56;4970264;28;20041;-67
2023/04/10 09:52:27;;;;;;;;;;;;;;;25.16;30.50;99178.31;4976868;28;20029;-67
2023/04/10 09:54:54;;;;;;;2.92;2.17;;;;;;;25.75;29.60;99163.28;4975838;28;19913;-66
2023/04/10 09:57:21;;;;;;;6.10;2.28;;;;;;;26.13;29.76;99155.94;4975982;28;20026;-66
2023/04/10 09:59:55;;;;;;;3.95;2.55;;;;;;;27.40;28.48;99151.50;4976570;28;20030;-66
2023/04/10 10:02:27;;;;;;;3.00;2.10;;;;;;;25.86;28.70;99148.25;4974559;28;20022;-65
2023/04/10 10:04:53;;;;;;;4.75;2.47;;;;;;;26.27;28.80;99150.47;4975730;28;20639;-67
2023/04/10 10:07:21;;;;;;;3.42;2.03;;;;;;;25.97;28.63;99144.22;4976539;28;20027;-68
2023/04/10 10:09:50;;;;;;;2.47;2.17;;;;;;;26.07;28.82;99136.88;4986329;28;20030;-66
2023/04/10 10:12:21;;;;;;;3.00;2.35;;;;;;;26.59;29.10;99141.44;4981736;28;20035;-67
2023/04/10 10:15:03;;;;;;;2.80;2.10;;;;;;;27.55;28.20;99140.09;4968760;28;20033;-66
2023/04/10 10:17:36;;;;;;;2.75;2.20;;;;;;;27.47;27.92;99135.25;4989127;28;20027;-66
2023/04/10 10:20:09;;;;;;;3.05;2.20;;;;;;;25.79;29.26;99136.66;4990771;28;20088;-67
2023/04/10 10:22:37;;;;;;;3.40;2.28;;;;;;;25.82;28.96;99138.81;4973847;28;20022;-68
2023/04/10 10:25:02;;;;;;;2.90;1.98;;;;;;;25.70;28.79;99128.16;4969988;28;20525;-67
2023/04/10 10:27:31;;;;;;;4.18;2.28;;;;;;;25.33;29.20;99131.59;4975331;28;20030;-66
2023/04/10 10:29:59;;;;;;;2.42;2.15;;;;;;;27.19;27.82;99131.59;4990858;28;20117;-68
2023/04/10 10:32:26;;;;;;;2.72;2.05;;;;;;;25.69;28.42;99117.38;4973404;28;20031;-67
2023/04/10 10:34:52;;;;;;;3.10;2.20;;;;;;;26.37;28.60;99105.13;4976643;28;20026;-67
2023/04/10 10:37:19;;;;;;;3.35;2.30;;;;;;;27.38;28.04;99100.97;5001788;28;20029;-62
2023/04/10 10:39:56;;;;;;;3.00;2.03;;;;;;;27.84;27.78;99095.34;4987623;28;20050;-61
2023/04/10 10:42:56;;;;;;;3.63;2.00;;;;;;;26.76;27.84;99099.25;4964058;28;20034;-60
2023/04/10 10:45:33;;;;;;;2.67;1.90;;;;;;;26.15;27.85;99100.19;4970573;28;20113;-60
2023/04/10 10:47:59;;;;;;;3.28;2.17;;;;;;;25.40;28.57;99090.53;4975996;28;20057;-60
2023/04/10 10:50:24;;;;;;;3.90;2.13;;;;;;;23.39;30.08;99090.19;4971965;28;20027;-60
2023/04/10 10:52:56;;;;;;;2.45;2.05;;;;;;;23.03;31.26;99085.84;4990081;28;20027;-60
2023/04/10 10:55:24;;;;;;;2.45;1.88;;;;;;;22.85;31.67;99085.31;4969969;28;20064;-60
2023/04/10 10:58:00;;;;;;;2.88;2.10;;;;;;;22.91;31.84;99081.41;4974267;28;20041;-61
2023/04/10 11:00:46;;;;;;;2.53;1.80;;;;;;;22.96;30.93;99081.44;4973075;28;20088;-61
2023/04/10 11:03:14;;;;;;;2.83;1.85;;;;;;;23.42;30.55;99080.50;4972690;28;20067;-61
2023/04/10 11:05:59;;;;;;;2.00;1.60;;;;;;;23.56;30.01;99078.81;4975182;28;20035;-61
2023/04/10 11:08:35;;;;;;;2.85;1.92;;;;;;;22.51;31.35;99076.75;4974396;28;20848;-60
2023/04/10 11:11:19;;;;;;;2.75;1.95;;;;;;;23.63;30.45;99079.34;4975224;28;20019;-60
2023/04/10 11:13:56;;;;;;;2.42;1.70;;;;;;;24.74;29.45;99071.81;4974707;28;20395;-60
2023/04/10 11:16:40;;;;;;;2.78;1.98;;;;;;;25.32;28.53;99080.13;4974365;28;20031;-61
2023/04/10 11:19:07;;;;;;;2.90;1.95;;;;;;;26.59;27.47;99071.22;4991422;28;20549;-60
2023/04/10 11:22:03;;;;;;;2.70;1.95;;;;;;;26.83;27.79;99060.84;4987508;28;20076;-60
2023/04/10 11:24:49;;;;;;;3.35;2.47;;;;;;;26.87;27.23;99058.25;4972852;28;20089;-61
2023/04/10 11:27:38;;;;;;;2.45;1.75;;;;;;;27.39;27.41;99056.22;4966730;28;20035;-61
2023/04/10 11:30:24;;;;;;;;;;;;;;;27.97;26.45;99046.38;4974006;28;20371;-60
2023/04/10 11:32:52;;;;;;;2.25;1.90;;;;;;;29.17;26.24;99044.03;4968848;28;19957;-59